Time,TemperatureF,DewpointF,PressureIn,WindDirection,WindDirectionDegrees,WindSpeedMPH,WindSpeedGustMPH,Humidity,HourlyPrecipIn,Conditions,Clouds,dailyrainin,SolarRadiationWatts/m^2,SoftwareType,DateUTC
2013-10-17 00:00:00,51.0,51.0,-100.00,NNE,31,1.0,3.0,100,-99.99,,,0.00,0.000000,,2013-10-17 07:00:00,
2013-10-17 00:52:00,51.0,51.0,-100.00,NNE,31,1.0,3.0,100,-99.99,,,0.00,0.000000,,2013-10-17 07:52:00,
2013-10-17 01:00:00,50.0,50.0,-100.00,NNE,32,2.0,4.0,100,-99.99,,,0.00,0.000000,,2013-10-17 08:00:00,
2013-10-17 01:42:00,50.0,50.0,-100.00,NNE,32,2.0,4.0,100,-99.99,,,0.00,0.000000,,2013-10-17 08:42:00,
2013-10-17 01:52:00,50.0,50.0,-100.00,NNE,32,2.0,4.0,100,-99.99,,,0.00,0.000000,,2013-10-17 08:52:00,
2013-10-17 02:00:00,51.0,51.0,-100.00,NE,48,3.0,5.0,100,-99.99,,,0.00,0.000000,,2013-10-17 09:00:00,
2013-10-17 02:53:00,51.0,51.0,-100.00,NE,48,3.0,5.0,100,-99.99,,,0.00,0.000000,,2013-10-17 09:53:00,
2013-10-17 03:00:00,50.0,50.0,-100.00,ENE,62,4.0,7.0,100,-99.99,,,0.00,0.000000,,2013-10-17 10:00:00,
2013-10-17 03:42:00,50.0,50.0,-100.00,ENE,62,4.0,7.0,100,-99.99,,,0.00,0.000000,,2013-10-17 10:42:00,
2013-10-17 03:53:00,50.0,50.0,-100.00,ENE,62,4.0,7.0,100,-99.99,,,0.00,0.000000,,2013-10-17 10:53:00,
2013-10-17 04:00:00,50.0,50.0,-100.00,NE,50,3.0,5.0,100,-99.99,,,0.00,0.000000,,2013-10-17 11:00:00,
2013-10-17 04:42:00,50.0,50.0,-100.00,NE,50,3.0,5.0,100,-99.99,,,0.00,0.000000,,2013-10-17 11:42:00,
2013-10-17 04:52:00,50.0,50.0,-100.00,NE,50,3.0,5.0,100,-99.99,,,0.00,0.000000,,2013-10-17 11:52:00,
2013-10-17 05:00:00,51.0,51.0,-100.00,ENE,72,2.0,4.0,100,-99.99,,,0.00,0.000000,,2013-10-17 12:00:00,
2013-10-17 05:42:00,51.0,51.0,-100.00,ENE,72,2.0,4.0,100,-99.99,,,0.00,0.000000,,2013-10-17 12:42:00,
2013-10-17 05:52:00,51.0,51.0,-100.00,ENE,72,2.0,4.0,100,-99.99,,,0.00,0.000000,,2013-10-17 12:52:00,
2013-10-17 06:00:00,50.0,50.0,-100.00,NE,53,3.0,6.0,100,-99.99,,,0.00,0.000000,,2013-10-17 13:00:00,
2013-10-17 06:42:00,50.0,50.0,-100.00,NE,53,3.0,6.0,100,-99.99,,,0.00,0.000000,,2013-10-17 13:42:00,
2013-10-17 06:52:00,50.0,50.0,-100.00,NE,53,3.0,6.0,100,-99.99,,,0.00,0.000000,,2013-10-17 13:52:00,
2013-10-17 07:00:00,49.0,49.0,-100.00,NE,53,3.0,6.0,100,-99.99,,,0.00,0.000000,,2013-10-17 14:00:00,
2013-10-17 07:52:00,49.0,49.0,-100.00,NE,53,3.0,6.0,100,-99.99,,,0.00,0.000000,,2013-10-17 14:52:00,
2013-10-17 08:00:00,48.0,48.0,-100.00,North,5,3.0,7.0,100,-99.99,,,0.00,7.550000,,2013-10-17 15:00:00,
2013-10-17 08:53:00,48.0,48.0,-100.00,North,5,3.0,7.0,100,-99.99,,,0.00,7.550000,,2013-10-17 15:53:00,
2013-10-17 09:00:00,48.0,48.0,-100.00,NE,44,4.0,7.0,100,-99.99,,,0.00,54.740002,,2013-10-17 16:00:00,
2013-10-17 09:53:00,48.0,48.0,-100.00,NE,44,4.0,7.0,100,-99.99,,,0.00,54.740002,,2013-10-17 16:53:00,
2013-10-17 10:00:00,49.0,49.0,-100.00,NNE,21,4.0,8.0,100,-99.99,,,0.00,195.130005,,2013-10-17 17:00:00,
2013-10-17 10:42:00,49.0,49.0,-100.00,NNE,21,4.0,8.0,100,-99.99,,,0.00,195.130005,,2013-10-17 17:42:00,
2013-10-17 10:53:00,49.0,49.0,-100.00,NNE,21,4.0,8.0,100,-99.99,,,0.00,195.130005,,2013-10-17 17:53:00,
2013-10-17 11:00:00,54.0,54.0,-100.00,NE,50,3.0,7.0,100,-99.99,,,0.00,510.440002,,2013-10-17 18:00:00,
2013-10-17 11:52:00,54.0,54.0,-100.00,NE,50,3.0,7.0,100,-99.99,,,0.00,510.440002,,2013-10-17 18:52:00,
2013-10-17 12:00:00,57.0,57.0,-100.00,NNW,337,4.0,8.0,97,-99.99,,,0.00,606.090027,,2013-10-17 19:00:00,
2013-10-17 12:42:00,57.0,57.0,-100.00,NNW,337,4.0,8.0,97,-99.99,,,0.00,606.090027,,2013-10-17 19:42:00,
2013-10-17 12:53:00,57.0,57.0,-100.00,NNW,337,4.0,8.0,97,-99.99,,,0.00,606.090027,,2013-10-17 19:53:00,
2013-10-17 13:00:00,58.0,54.0,-100.00,North,349,7.0,13.0,86,-99.99,,,0.00,651.650024,,2013-10-17 20:00:00,
2013-10-17 13:42:00,58.0,54.0,-100.00,North,349,7.0,13.0,86,-99.99,,,0.00,651.650024,,2013-10-17 20:42:00,
2013-10-17 13:52:00,58.0,54.0,-100.00,North,349,7.0,13.0,86,-99.99,,,0.00,651.650024,,2013-10-17 20:52:00,
2013-10-17 14:00:00,59.0,55.0,-100.00,NNW,342,8.0,14.0,86,-99.99,,,0.00,633.979980,,2013-10-17 21:00:00,
2013-10-17 14:44:00,59.0,55.0,-100.00,NNW,342,8.0,14.0,86,-99.99,,,0.00,633.979980,,2013-10-17 21:44:00,
2013-10-17 14:54:00,59.0,55.0,-100.00,NNW,342,8.0,14.0,86,-99.99,,,0.00,633.979980,,2013-10-17 21:54:00,
2013-10-17 15:00:00,60.0,55.0,-100.00,NNW,344,7.0,13.0,82,-99.99,,,0.00,560.880005,,2013-10-17 22:00:00,
2013-10-17 15:53:00,60.0,55.0,-100.00,NNW,344,7.0,13.0,82,-99.99,,,0.00,560.880005,,2013-10-17 22:53:00,
2013-10-17 16:00:00,58.0,54.0,-100.00,NNW,335,9.0,15.0,87,-99.99,,,0.00,432.920013,,2013-10-17 23:00:00,
2013-10-17 16:43:00,58.0,54.0,-100.00,NNW,335,9.0,15.0,87,-99.99,,,0.00,432.920013,,2013-10-17 23:43:00,
2013-10-17 16:53:00,58.0,54.0,-100.00,NNW,335,9.0,15.0,87,-99.99,,,0.00,432.920013,,2013-10-17 23:53:00,
2013-10-17 17:00:00,59.0,54.0,-100.00,NNW,342,5.0,11.0,85,-99.99,,,0.00,265.329987,,2013-10-18 00:00:00,
2013-10-17 17:42:00,59.0,54.0,-100.00,NNW,342,5.0,11.0,85,-99.99,,,0.00,265.329987,,2013-10-18 00:42:00,
2013-10-17 17:53:00,59.0,54.0,-100.00,NNW,342,5.0,11.0,85,-99.99,,,0.00,265.329987,,2013-10-18 00:53:00,
2013-10-17 18:00:00,56.0,53.0,-100.00,NNW,347,5.0,10.0,89,-99.99,,,0.00,58.689999,,2013-10-18 01:00:00,
2013-10-17 18:52:00,56.0,53.0,-100.00,NNW,347,5.0,10.0,89,-99.99,,,0.00,58.689999,,2013-10-18 01:52:00,
2013-10-17 19:00:00,54.0,53.0,-100.00,North,358,3.0,6.0,95,-99.99,,,0.00,0.350000,,2013-10-18 02:00:00,
2013-10-17 19:42:00,54.0,53.0,-100.00,North,358,3.0,6.0,95,-99.99,,,0.00,0.350000,,2013-10-18 02:42:00,
2013-10-17 19:52:00,54.0,53.0,-100.00,North,358,3.0,6.0,95,-99.99,,,0.00,0.350000,,2013-10-18 02:52:00,
2013-10-17 20:00:00,53.0,53.0,-100.00,NNE,13,2.0,5.0,99,-99.99,,,0.00,0.000000,,2013-10-18 03:00:00,
2013-10-17 20:55:00,53.0,53.0,-100.00,NNE,13,2.0,5.0,99,-99.99,,,0.00,0.000000,,2013-10-18 03:55:00,
2013-10-17 21:00:00,49.0,49.0,-100.00,NE,43,0.0,0.0,100,-99.99,,,0.00,0.000000,,2013-10-18 04:00:00,
2013-10-17 21:53:00,49.0,49.0,-100.00,NE,43,0.0,0.0,100,-99.99,,,0.00,0.000000,,2013-10-18 04:53:00,
2013-10-17 22:00:00,47.0,47.0,-100.00,East,91,0.0,2.0,100,-99.99,,,0.00,0.000000,,2013-10-18 05:00:00,
2013-10-17 22:43:00,47.0,47.0,-100.00,East,91,0.0,2.0,100,-99.99,,,0.00,0.000000,,2013-10-18 05:43:00,
2013-10-17 22:52:00,47.0,47.0,-100.00,East,91,0.0,2.0,100,-99.99,,,0.00,0.000000,,2013-10-18 05:52:00,
2013-10-17 23:00:00,49.0,49.0,-100.00,North,358,1.0,3.0,100,-99.99,,,0.00,0.000000,,2013-10-18 06:00:00,
2013-10-17 23:42:00,49.0,49.0,-100.00,North,358,1.0,3.0,100,-99.99,,,0.00,0.000000,,2013-10-18 06:42:00,
2013-10-17 23:52:00,49.0,49.0,-100.00,North,358,1.0,3.0,100,-99.99,,,0.00,0.000000,,2013-10-18 06:52:00,